CheckWX is a tool to help pilots better visualize weather data.  It is not intended as a substitute for an official pre-flight weather briefing.

01:05:38 UTC

KBEA METAR
Beeville Municipal Airport
Beeville, Texas, USA
Current

11 mins ago

KBEA 240055Z AUTO 36004KT 10SM CLR 22/00 A2998 RMK AO2 T02160001
Observed
Feb-24 @ 00:55 UTC
Wind
  • 360° at 4 KTS
Visibility
10 SM
Flight Rules
VFR
Cloud Levels
  • Clear skies
Temperature
22°C / 72°F
Dewpoint
C / 32°F
Humidity
23%
Altimeter
29.98" Hg
Pressure
1015.22 hPa
Previous

31 mins ago

KBEA 240035Z AUTO 34003KT 10SM CLR 23/00 A2998 RMK AO2 T02250001
Observed
Feb-24 @ 00:35 UTC
Wind
  • 340° at 3 KTS
Visibility
10 SM
Flight Rules
VFR
Cloud Levels
  • Clear skies
Temperature
23°C / 73°F
Dewpoint
C / 32°F
Humidity
22%
Altimeter
29.98" Hg
Pressure
1015.22 hPa
Previous

51 mins ago

KBEA 240015Z AUTO 34003KT 10SM CLR 23/00 A2996 RMK AO2 T02341002
Observed
Feb-24 @ 00:15 UTC
Wind
  • 340° at 3 KTS
Visibility
10 SM
Flight Rules
VFR
Cloud Levels
  • Clear skies
Temperature
23°C / 73°F
Dewpoint
-0°C / 32°F
Humidity
22%
Altimeter
29.96" Hg
Pressure
1014.52 hPa